sensor_id;sensor_type;location;lat;lon;timestamp;pressure;altitude;pressure_sealevel;temperature;humidity
48390;BME280;34643;47.964;7.982;2023-01-29T00:04:40;97562.34;;;17.52;53.52
48390;BME280;34643;47.964;7.982;2023-01-29T00:09:40;97570.94;;;17.54;53.47
48390;BME280;34643;47.964;7.982;2023-01-29T00:14:40;97560.66;;;17.51;53.72
48390;BME280;34643;47.964;7.982;2023-01-29T00:19:40;97558.06;;;17.51;53.71
48390;BME280;34643;47.964;7.982;2023-01-29T00:24:41;97571.84;;;17.53;53.59
48390;BME280;34643;47.964;7.982;2023-01-29T00:29:43;97561.22;;;17.56;53.66
48390;BME280;34643;47.964;7.982;2023-01-29T00:35:01;97568.31;;;17.54;53.66
48390;BME280;34643;47.964;7.982;2023-01-29T00:40:02;97568.97;;;17.58;53.59
48390;BME280;34643;47.964;7.982;2023-01-29T00:45:03;97566.34;;;17.58;53.38
48390;BME280;34643;47.964;7.982;2023-01-29T00:50:07;97567.19;;;17.58;53.58
48390;BME280;34643;47.964;7.982;2023-01-29T00:55:09;97563.00;;;17.56;53.41
48390;BME280;34643;47.964;7.982;2023-01-29T01:00:11;97557.78;;;17.56;53.66
48390;BME280;34643;47.964;7.982;2023-01-29T01:05:13;97554.34;;;17.55;53.52
48390;BME280;34643;47.964;7.982;2023-01-29T01:10:18;97549.75;;;17.59;53.51
48390;BME280;34643;47.964;7.982;2023-01-29T01:15:22;97552.25;;;17.60;53.52
48390;BME280;34643;47.964;7.982;2023-01-29T01:20:24;97560.09;;;17.60;53.40
48390;BME280;34643;47.964;7.982;2023-01-29T01:25:25;97550.41;;;17.62;53.36
48390;BME280;34643;47.964;7.982;2023-01-29T01:30:25;97556.56;;;17.61;53.61
48390;BME280;34643;47.964;7.982;2023-01-29T01:35:26;97549.47;;;17.63;53.46
48390;BME280;34643;47.964;7.982;2023-01-29T01:40:26;97559.81;;;17.65;53.65
48390;BME280;34643;47.964;7.982;2023-01-29T01:45:31;97561.78;;;17.61;53.46
48390;BME280;34643;47.964;7.982;2023-01-29T01:50:45;97557.28;;;17.63;53.65
48390;BME280;34643;47.964;7.982;2023-01-29T01:55:48;97558.88;;;17.66;53.58
48390;BME280;34643;47.964;7.982;2023-01-29T02:00:49;97559.63;;;17.68;53.44
48390;BME280;34643;47.964;7.982;2023-01-29T02:05:51;97555.41;;;17.65;53.60
48390;BME280;34643;47.964;7.982;2023-01-29T02:11:11;97548.53;;;17.64;53.72
48390;BME280;34643;47.964;7.982;2023-01-29T02:16:12;97547.50;;;17.67;53.66
48390;BME280;34643;47.964;7.982;2023-01-29T02:21:16;97554.41;;;17.68;53.85
48390;BME280;34643;47.964;7.982;2023-01-29T02:26:38;97562.22;;;17.68;53.61
48390;BME280;34643;47.964;7.982;2023-01-29T02:31:40;97562.13;;;17.70;53.50
48390;BME280;34643;47.964;7.982;2023-01-29T02:36:44;97557.09;;;17.66;53.66
48390;BME280;34643;47.964;7.982;2023-01-29T02:41:57;97554.41;;;17.68;53.59
48390;BME280;34643;47.964;7.982;2023-01-29T02:47:02;97565.56;;;17.70;53.64
48390;BME280;34643;47.964;7.982;2023-01-29T02:57:14;97565.50;;;17.72;53.44
48390;BME280;34643;47.964;7.982;2023-01-29T03:02:19;97567.16;;;17.73;53.40
48390;BME280;34643;47.964;7.982;2023-01-29T03:07:34;97572.38;;;17.73;53.50
48390;BME280;34643;47.964;7.982;2023-01-29T03:12:58;97577.59;;;17.73;53.46
48390;BME280;34643;47.964;7.982;2023-01-29T03:18:01;97589.06;;;17.70;53.49
48390;BME280;34643;47.964;7.982;2023-01-29T03:23:04;97584.50;;;17.74;53.43
48390;BME280;34643;47.964;7.982;2023-01-29T03:28:10;97582.81;;;17.73;53.63
48390;BME280;34643;47.964;7.982;2023-01-29T03:33:31;97585.34;;;17.74;53.36
48390;BME280;34643;47.964;7.982;2023-01-29T03:38:34;97585.41;;;17.73;53.50
48390;BME280;34643;47.964;7.982;2023-01-29T04:03:55;97574.97;;;17.73;53.58
48390;BME280;34643;47.964;7.982;2023-01-29T04:09:05;97570.63;;;17.73;53.60
48390;BME280;34643;47.964;7.982;2023-01-29T04:14:09;97587.03;;;17.75;53.37
48390;BME280;34643;47.964;7.982;2023-01-29T04:19:10;97580.84;;;17.76;53.54
48390;BME280;34643;47.964;7.982;2023-01-29T04:24:13;97582.53;;;17.77;53.66
48390;BME280;34643;47.964;7.982;2023-01-29T04:34:27;97579.09;;;17.77;53.63
48390;BME280;34643;47.964;7.982;2023-01-29T04:39:31;97582.63;;;17.76;53.59
48390;BME280;34643;47.964;7.982;2023-01-29T04:49:36;97568.44;;;17.80;53.58
48390;BME280;34643;47.964;7.982;2023-01-29T04:59:59;97568.44;;;17.80;53.52
48390;BME280;34643;47.964;7.982;2023-01-29T05:05:01;97557.25;;;17.78;53.53
48390;BME280;34643;47.964;7.982;2023-01-29T05:10:05;97566.78;;;17.79;53.53
48390;BME280;34643;47.964;7.982;2023-01-29T05:15:09;97558.94;;;17.79;53.56
48390;BME280;34643;47.964;7.982;2023-01-29T05:20:11;97566.69;;;17.80;53.58
48390;BME280;34643;47.964;7.982;2023-01-29T05:25:18;97575.25;;;17.82;53.54
48390;BME280;34643;47.964;7.982;2023-01-29T05:30:20;97577.94;;;17.81;53.51
48390;BME280;34643;47.964;7.982;2023-01-29T05:35:20;97580.56;;;17.81;53.43
48390;BME280;34643;47.964;7.982;2023-01-29T05:40:20;97587.47;;;17.82;53.57
48390;BME280;34643;47.964;7.982;2023-01-29T05:45:20;97581.28;;;17.83;53.37
48390;BME280;34643;47.964;7.982;2023-01-29T05:50:21;97582.34;;;17.80;53.59
48390;BME280;34643;47.964;7.982;2023-01-29T05:55:22;97581.38;;;17.81;53.34
48390;BME280;34643;47.964;7.982;2023-01-29T06:00:22;97598.94;;;17.79;53.71
48390;BME280;34643;47.964;7.982;2023-01-29T06:05:22;97598.84;;;17.81;53.51
48390;BME280;34643;47.964;7.982;2023-01-29T06:10:23;97612.72;;;17.81;53.62
48390;BME280;34643;47.964;7.982;2023-01-29T06:15:23;97608.56;;;17.79;53.52
48390;BME280;34643;47.964;7.982;2023-01-29T06:20:25;97585.06;;;17.79;53.55
48390;BME280;34643;47.964;7.982;2023-01-29T06:25:25;97569.28;;;17.80;53.48
48390;BME280;34643;47.964;7.982;2023-01-29T06:30:26;97553.72;;;17.79;53.60
48390;BME280;34643;47.964;7.982;2023-01-29T06:35:27;97552.97;;;17.77;53.56
48390;BME280;34643;47.964;7.982;2023-01-29T06:40:27;97563.22;;;17.80;53.71
48390;BME280;34643;47.964;7.982;2023-01-29T06:45:28;97569.38;;;17.79;53.49
48390;BME280;34643;47.964;7.982;2023-01-29T06:50:28;97590.19;;;17.80;53.53
48390;BME280;34643;47.964;7.982;2023-01-29T06:55:28;97590.81;;;17.84;53.49
48390;BME280;34643;47.964;7.982;2023-01-29T07:00:29;97597.91;;;17.82;53.60
48390;BME280;34643;47.964;7.982;2023-01-29T07:05:29;97613.59;;;17.82;53.50
48390;BME280;34643;47.964;7.982;2023-01-29T07:10:30;97622.34;;;17.81;53.62
48390;BME280;34643;47.964;7.982;2023-01-29T07:15:30;97629.00;;;18.14;53.40
48390;BME280;34643;47.964;7.982;2023-01-29T07:20:30;97639.00;;;15.01;46.41
48390;BME280;34643;47.964;7.982;2023-01-29T07:25:32;97650.88;;;16.98;50.13
48390;BME280;34643;47.964;7.982;2023-01-29T07:30:32;97652.59;;;17.42;49.46
48390;BME280;34643;47.964;7.982;2023-01-29T07:35:40;97649.50;;;17.49;49.55
48390;BME280;34643;47.964;7.982;2023-01-29T07:40:40;97655.38;;;17.53;49.87
48390;BME280;34643;47.964;7.982;2023-01-29T07:45:41;97660.06;;;17.62;50.70
48390;BME280;34643;47.964;7.982;2023-01-29T07:50:41;97649.63;;;17.62;50.88
48390;BME280;34643;47.964;7.982;2023-01-29T07:55:43;97642.69;;;17.61;51.01
48390;BME280;34643;47.964;7.982;2023-01-29T08:00:44;97638.13;;;17.65;51.04
48390;BME280;34643;47.964;7.982;2023-01-29T08:05:44;97653.97;;;17.62;51.36
48390;BME280;34643;47.964;7.982;2023-01-29T08:10:45;97666.09;;;17.63;51.31
48390;BME280;34643;47.964;7.982;2023-01-29T08:15:45;97677.38;;;17.63;51.53
48390;BME280;34643;47.964;7.982;2023-01-29T08:20:45;97682.50;;;17.65;51.43
48390;BME280;34643;47.964;7.982;2023-01-29T08:25:46;97689.31;;;17.67;51.72
48390;BME280;34643;47.964;7.982;2023-01-29T08:30:46;97703.13;;;17.70;51.45
48390;BME280;34643;47.964;7.982;2023-01-29T08:35:49;97709.28;;;17.68;51.71
48390;BME280;34643;47.964;7.982;2023-01-29T08:40:50;97712.63;;;17.71;51.78
48390;BME280;34643;47.964;7.982;2023-01-29T08:45:50;97706.66;;;17.68;52.09
48390;BME280;34643;47.964;7.982;2023-01-29T08:50:50;97712.53;;;17.72;51.87
48390;BME280;34643;47.964;7.982;2023-01-29T08:55:51;97714.22;;;17.73;52.15
48390;BME280;34643;47.964;7.982;2023-01-29T09:00:51;97713.19;;;17.76;52.01
48390;BME280;34643;47.964;7.982;2023-01-29T09:05:52;97707.13;;;17.75;52.15
48390;BME280;34643;47.964;7.982;2023-01-29T09:10:52;97715.69;;;17.77;52.06
48390;BME280;34643;47.964;7.982;2023-01-29T09:15:52;97720.94;;;17.77;52.29
48390;BME280;34643;47.964;7.982;2023-01-29T09:20:53;97729.59;;;17.78;52.20
48390;BME280;34643;47.964;7.982;2023-01-29T09:25:53;97735.56;;;17.80;52.18
48390;BME280;34643;47.964;7.982;2023-01-29T09:30:53;97744.34;;;17.79;52.42
48390;BME280;34643;47.964;7.982;2023-01-29T09:35:53;97745.09;;;17.81;52.42
48390;BME280;34643;47.964;7.982;2023-01-29T09:45:55;97726.72;;;17.82;52.62
48390;BME280;34643;47.964;7.982;2023-01-29T09:50:57;97711.88;;;17.83;52.54
48390;BME280;34643;47.964;7.982;2023-01-29T09:56:13;97719.63;;;17.84;52.71
48390;BME280;34643;47.964;7.982;2023-01-29T10:01:21;97719.38;;;17.89;52.49
48390;BME280;34643;47.964;7.982;2023-01-29T10:06:42;97717.69;;;17.88;52.76
48390;BME280;34643;47.964;7.982;2023-01-29T10:11:48;97722.72;;;17.91;52.69
48390;BME280;34643;47.964;7.982;2023-01-29T10:16:58;97720.94;;;17.92;52.70
48390;BME280;34643;47.964;7.982;2023-01-29T10:22:07;97712.53;;;18.01;52.49
48390;BME280;34643;47.964;7.982;2023-01-29T10:27:16;97699.56;;;17.99;52.72
48390;BME280;34643;47.964;7.982;2023-01-29T10:32:17;97674.50;;;17.97;52.81
48390;BME280;34643;47.964;7.982;2023-01-29T10:37:19;97656.94;;;17.99;52.73
48390;BME280;34643;47.964;7.982;2023-01-29T10:42:25;97644.63;;;18.01;52.64
48390;BME280;34643;47.964;7.982;2023-01-29T10:52:34;97620.09;;;18.03;52.71
48390;BME280;34643;47.964;7.982;2023-01-29T10:57:46;97619.78;;;18.08;52.46
48390;BME280;34643;47.964;7.982;2023-01-29T11:02:52;97618.75;;;18.11;52.63
48390;BME280;34643;47.964;7.982;2023-01-29T11:08:11;97624.00;;;18.11;52.54
48390;BME280;34643;47.964;7.982;2023-01-29T11:13:14;97616.16;;;18.11;52.56
48390;BME280;34643;47.964;7.982;2023-01-29T11:18:15;97603.09;;;18.11;52.49
48390;BME280;34643;47.964;7.982;2023-01-29T11:23:26;97623.59;;;18.17;52.63
48390;BME280;34643;47.964;7.982;2023-01-29T11:28:34;97630.88;;;18.12;52.63
48390;BME280;34643;47.964;7.982;2023-01-29T11:33:34;97623.59;;;18.17;52.52
48390;BME280;34643;47.964;7.982;2023-01-29T11:38:34;97626.09;;;18.18;52.63
48390;BME280;34643;47.964;7.982;2023-01-29T11:43:35;97633.09;;;18.18;52.85
48390;BME280;34643;47.964;7.982;2023-01-29T11:48:45;97611.34;;;18.17;52.56
48390;BME280;34643;47.964;7.982;2023-01-29T11:53:50;97598.28;;;18.17;52.54
48390;BME280;34643;47.964;7.982;2023-01-29T11:58:52;97597.72;;;18.27;52.57
48390;BME280;34643;47.964;7.982;2023-01-29T12:03:54;97596.06;;;18.38;52.83
48390;BME280;34643;47.964;7.982;2023-01-29T12:08:55;97596.06;;;18.38;52.93
48390;BME280;34643;47.964;7.982;2023-01-29T12:13:58;97599.44;;;18.40;53.13
48390;BME280;34643;47.964;7.982;2023-01-29T12:19:03;97602.06;;;18.26;53.18
48390;BME280;34643;47.964;7.982;2023-01-29T12:24:10;97591.84;;;18.23;53.29
48390;BME280;34643;47.964;7.982;2023-01-29T12:34:17;97583.91;;;18.24;53.06
48390;BME280;34643;47.964;7.982;2023-01-29T12:39:21;97574.50;;;18.35;52.77
48390;BME280;34643;47.964;7.982;2023-01-29T12:44:29;97563.81;;;18.78;52.64
48390;BME280;34643;47.964;7.982;2023-01-29T12:49:34;97562.03;;;18.66;53.10
48390;BME280;34643;47.964;7.982;2023-01-29T12:54:59;97562.06;;;19.17;52.47
48390;BME280;34643;47.964;7.982;2023-01-29T13:00:04;97558.72;;;18.89;53.46
48390;BME280;34643;47.964;7.982;2023-01-29T13:05:14;97553.88;;;18.83;53.79
48390;BME280;34643;47.964;7.982;2023-01-29T13:10:19;97541.03;;;18.93;54.61
48390;BME280;34643;47.964;7.982;2023-01-29T13:15:38;97535.06;;;18.91;54.82
48390;BME280;34643;47.964;7.982;2023-01-29T13:20:43;97532.31;;;18.67;55.67
48390;BME280;34643;47.964;7.982;2023-01-29T13:25:48;97520.16;;;18.53;55.50
48390;BME280;34643;47.964;7.982;2023-01-29T13:36:13;97506.28;;;18.78;54.73
48390;BME280;34643;47.964;7.982;2023-01-29T13:41:16;97489.84;;;18.76;55.02
48390;BME280;34643;47.964;7.982;2023-01-29T13:46:17;97488.91;;;18.77;55.51
48390;BME280;34643;47.964;7.982;2023-01-29T13:51:20;97494.03;;;18.78;56.02
48390;BME280;34643;47.964;7.982;2023-01-29T14:07:06;97477.00;;;18.73;56.61
48390;BME280;34643;47.964;7.982;2023-01-29T14:12:52;97471.88;;;18.71;56.60
48390;BME280;34643;47.964;7.982;2023-01-29T14:17:33;97486.09;;;18.67;56.85
48390;BME280;34643;47.964;7.982;2023-01-29T14:22:36;97489.66;;;18.66;56.55
48390;BME280;34643;47.964;7.982;2023-01-29T14:27:37;97486.31;;;18.51;56.93
48390;BME280;34643;47.964;7.982;2023-01-29T14:32:37;97489.41;;;18.31;56.81
48390;BME280;34643;47.964;7.982;2023-01-29T14:37:38;97497.97;;;18.20;56.85
48390;BME280;34643;47.964;7.982;2023-01-29T14:52:46;97511.75;;;18.09;56.30
48390;BME280;34643;47.964;7.982;2023-01-29T14:57:48;97516.34;;;18.05;56.17
48390;BME280;34643;47.964;7.982;2023-01-29T15:02:50;97519.38;;;18.12;56.03
48390;BME280;34643;47.964;7.982;2023-01-29T15:13:29;97527.00;;;18.15;55.55
48390;BME280;34643;47.964;7.982;2023-01-29T15:18:38;97537.88;;;18.09;55.56
48390;BME280;34643;47.964;7.982;2023-01-29T15:23:39;97547.69;;;18.05;55.30
48390;BME280;34643;47.964;7.982;2023-01-29T15:28:43;97550.59;;;18.01;55.54
48390;BME280;34643;47.964;7.982;2023-01-29T15:33:44;97546.50;;;17.97;55.27
48390;BME280;34643;47.964;7.982;2023-01-29T15:38:46;97548.47;;;17.93;55.45
48390;BME280;34643;47.964;7.982;2023-01-29T15:43:47;97551.38;;;17.89;55.22
48390;BME280;34643;47.964;7.982;2023-01-29T15:48:48;97548.97;;;17.85;55.43
48390;BME280;34643;47.964;7.982;2023-01-29T15:53:49;97549.81;;;17.86;55.22
48390;BME280;34643;47.964;7.982;2023-01-29T15:58:51;97545.47;;;17.85;54.96
48390;BME280;34643;47.964;7.982;2023-01-29T16:03:51;97552.56;;;17.83;55.02
48390;BME280;34643;47.964;7.982;2023-01-29T16:08:52;97556.13;;;17.82;54.92
48390;BME280;34643;47.964;7.982;2023-01-29T16:13:53;97562.28;;;17.81;54.87
48390;BME280;34643;47.964;7.982;2023-01-29T16:18:54;97557.97;;;17.80;54.97
48390;BME280;34643;47.964;7.982;2023-01-29T16:29:05;97567.78;;;17.76;54.93
48390;BME280;34643;47.964;7.982;2023-01-29T16:34:07;97573.13;;;17.75;54.67
48390;BME280;34643;47.964;7.982;2023-01-29T16:39:12;97565.41;;;17.73;54.94
48390;BME280;34643;47.964;7.982;2023-01-29T16:54:25;97565.31;;;17.75;54.69
48390;BME280;34643;47.964;7.982;2023-01-29T16:59:29;97551.28;;;17.76;54.49
48390;BME280;34643;47.964;7.982;2023-01-29T17:04:31;97549.63;;;17.75;54.63
48390;BME280;34643;47.964;7.982;2023-01-29T17:09:32;97554.00;;;17.74;54.57
48390;BME280;34643;47.964;7.982;2023-01-29T17:14:33;97557.66;;;17.72;54.60
48390;BME280;34643;47.964;7.982;2023-01-29T17:19:35;97559.63;;;17.68;54.76
48390;BME280;34643;47.964;7.982;2023-01-29T17:24:35;97560.63;;;17.65;54.45
48390;BME280;34643;47.964;7.982;2023-01-29T17:29:36;97553.94;;;17.61;54.60
48390;BME280;34643;47.964;7.982;2023-01-29T17:34:36;97548.72;;;17.61;54.75
48390;BME280;34643;47.964;7.982;2023-01-29T17:39:36;97554.03;;;17.60;54.61
48390;BME280;34643;47.964;7.982;2023-01-29T17:44:37;97557.47;;;17.60;54.34
48390;BME280;34643;47.964;7.982;2023-01-29T17:49:37;97558.44;;;17.59;54.44
48390;BME280;34643;47.964;7.982;2023-01-29T17:54:37;97555.00;;;17.59;54.35
48390;BME280;34643;47.964;7.982;2023-01-29T17:59:38;97562.06;;;17.57;54.29
48390;BME280;34643;47.964;7.982;2023-01-29T18:04:38;97563.56;;;17.61;54.22
48390;BME280;34643;47.964;7.982;2023-01-29T18:09:38;97563.97;;;17.67;54.41
48390;BME280;34643;47.964;7.982;2023-01-29T18:14:39;97567.91;;;17.60;54.49
48390;BME280;34643;47.964;7.982;2023-01-29T18:19:39;97565.53;;;17.57;54.47
48390;BME280;34643;47.964;7.982;2023-01-29T18:24:39;97574.28;;;17.56;54.38
48390;BME280;34643;47.964;7.982;2023-01-29T18:29:39;97575.97;;;17.57;54.38
48390;BME280;34643;47.964;7.982;2023-01-29T18:34:40;97587.31;;;17.56;54.38
48390;BME280;34643;47.964;7.982;2023-01-29T18:39:40;97583.16;;;17.54;54.40
48390;BME280;34643;47.964;7.982;2023-01-29T18:44:40;97606.72;;;17.52;54.30
48390;BME280;34643;47.964;7.982;2023-01-29T18:49:41;97593.22;;;17.31;54.35
48390;BME280;34643;47.964;7.982;2023-01-29T18:54:41;97596.09;;;17.55;53.67
48390;BME280;34643;47.964;7.982;2023-01-29T18:59:41;97589.44;;;17.64;54.86
48390;BME280;34643;47.964;7.982;2023-01-29T19:04:42;97586.56;;;17.68;55.77
48390;BME280;34643;47.964;7.982;2023-01-29T19:09:42;97577.69;;;17.71;55.84
48390;BME280;34643;47.964;7.982;2023-01-29T19:14:45;97579.00;;;17.64;56.34
48390;BME280;34643;47.964;7.982;2023-01-29T19:19:45;97572.13;;;17.63;56.34
48390;BME280;34643;47.964;7.982;2023-01-29T19:24:46;97572.22;;;17.61;56.44
48390;BME280;34643;47.964;7.982;2023-01-29T19:29:46;97569.50;;;17.63;56.19
48390;BME280;34643;47.964;7.982;2023-01-29T19:34:46;97566.91;;;17.63;56.49
48390;BME280;34643;47.964;7.982;2023-01-29T19:39:46;97566.06;;;17.62;56.52
48390;BME280;34643;47.964;7.982;2023-01-29T19:44:47;97570.94;;;17.54;56.72
48390;BME280;34643;47.964;7.982;2023-01-29T19:49:48;97576.63;;;17.46;57.23
48390;BME280;34643;47.964;7.982;2023-01-29T19:54:48;97586.44;;;17.43;57.34
48390;BME280;34643;47.964;7.982;2023-01-29T19:59:48;97582.31;;;17.39;57.19
48390;BME280;34643;47.964;7.982;2023-01-29T20:04:48;97592.00;;;17.37;57.57
48390;BME280;34643;47.964;7.982;2023-01-29T20:09:49;97593.88;;;17.35;57.68
48390;BME280;34643;47.964;7.982;2023-01-29T20:14:49;97588.84;;;17.32;57.77
48390;BME280;34643;47.964;7.982;2023-01-29T20:19:51;97592.47;;;17.29;57.42
48390;BME280;34643;47.964;7.982;2023-01-29T20:24:51;97596.97;;;17.27;57.85
48390;BME280;34643;47.964;7.982;2023-01-29T20:29:51;97589.22;;;17.25;57.72
48390;BME280;34643;47.964;7.982;2023-01-29T20:34:52;97591.09;;;17.23;57.93
48390;BME280;34643;47.964;7.982;2023-01-29T20:39:52;97583.34;;;17.22;57.68
48390;BME280;34643;47.964;7.982;2023-01-29T20:44:52;97596.19;;;17.25;57.80
48390;BME280;34643;47.964;7.982;2023-01-29T20:49:52;97584.66;;;17.29;57.84
48390;BME280;34643;47.964;7.982;2023-01-29T20:54:53;97587.81;;;17.34;57.78
48390;BME280;34643;47.964;7.982;2023-01-29T20:59:53;97583.91;;;17.41;57.69
48390;BME280;34643;47.964;7.982;2023-01-29T21:04:53;97586.31;;;17.44;57.63
48390;BME280;34643;47.964;7.982;2023-01-29T21:09:55;97574.94;;;17.45;57.64
48390;BME280;34643;47.964;7.982;2023-01-29T21:14:55;97579.03;;;17.49;57.58
48390;BME280;34643;47.964;7.982;2023-01-29T21:19:55;97569.44;;;17.50;57.54
48390;BME280;34643;47.964;7.982;2023-01-29T21:24:56;97561.63;;;17.50;57.85
48390;BME280;34643;47.964;7.982;2023-01-29T21:29:56;97563.09;;;17.54;57.82
48390;BME280;34643;47.964;7.982;2023-01-29T21:34:57;97569.31;;;17.52;58.10
48390;BME280;34643;47.964;7.982;2023-01-29T21:39:57;97565.16;;;17.49;57.84
48390;BME280;34643;47.964;7.982;2023-01-29T21:44:57;97559.94;;;17.49;57.93
48390;BME280;34643;47.964;7.982;2023-01-29T21:49:57;97559.94;;;17.49;57.69
48390;BME280;34643;47.964;7.982;2023-01-29T21:54:58;97553.16;;;17.46;57.66
48390;BME280;34643;47.964;7.982;2023-01-29T21:59:58;97548.00;;;17.45;57.72
48390;BME280;34643;47.964;7.982;2023-01-29T22:04:58;97541.00;;;17.45;57.71
48390;BME280;34643;47.964;7.982;2023-01-29T22:10:01;97532.25;;;17.46;57.20
48390;BME280;34643;47.964;7.982;2023-01-29T22:15:02;97534.97;;;17.45;57.30
48390;BME280;34643;47.964;7.982;2023-01-29T22:20:02;97521.19;;;17.43;57.18
48390;BME280;34643;47.964;7.982;2023-01-29T22:25:03;97522.94;;;17.42;57.68
48390;BME280;34643;47.964;7.982;2023-01-29T22:30:04;97509.16;;;17.40;57.13
48390;BME280;34643;47.964;7.982;2023-01-29T22:35:05;97500.41;;;17.41;56.90
48390;BME280;34643;47.964;7.982;2023-01-29T22:40:05;97497.06;;;17.39;56.84
48390;BME280;34643;47.964;7.982;2023-01-29T22:45:06;97490.97;;;17.39;56.55
48390;BME280;34643;47.964;7.982;2023-01-29T22:50:07;97503.19;;;17.38;57.07
48390;BME280;34643;47.964;7.982;2023-01-29T22:55:08;97500.59;;;17.38;57.56
48390;BME280;34643;47.964;7.982;2023-01-29T23:00:09;97503.28;;;17.37;57.43
48390;BME280;34643;47.964;7.982;2023-01-29T23:05:10;97498.06;;;17.37;57.40
48390;BME280;34643;47.964;7.982;2023-01-29T23:10:12;97491.19;;;17.36;57.41
48390;BME280;34643;47.964;7.982;2023-01-29T23:15:12;97493.16;;;17.32;57.68
48390;BME280;34643;47.964;7.982;2023-01-29T23:20:12;97500.13;;;17.32;57.24
48390;BME280;34643;47.964;7.982;2023-01-29T23:25:13;97499.38;;;17.29;57.34
48390;BME280;34643;47.964;7.982;2023-01-29T23:30:13;97498.66;;;17.27;57.28
48390;BME280;34643;47.964;7.982;2023-01-29T23:35:14;97509.91;;;17.28;57.29
48390;BME280;34643;47.964;7.982;2023-01-29T23:40:14;97498.66;;;17.27;57.06
48390;BME280;34643;47.964;7.982;2023-01-29T23:45:14;97496.03;;;17.27;57.32
48390;BME280;34643;47.964;7.982;2023-01-29T23:50:15;97477.78;;;17.27;56.79
48390;BME280;34643;47.964;7.982;2023-01-29T23:55:15;97457.63;;;17.29;57.12
